Time;durP1;ratioP1;P1;durP2;ratioP2;P2;SDS_P1;SDS_P2;PMS_P1;PMS_P2;Temp;Humidity;BMP_temperature;BMP_pressure;BME280_temperature;BME280_humidity;BME280_pressure;Samples;Min_cycle;Max_cycle;Signal;HPM_P1;HPM_P2
2022/10/26 00:00:27;;;;;;;13.75;5.93;;;12.50;79.30;;;;;;4992196;28;20265;-75
2022/10/26 00:02:55;;;;;;;10.45;5.88;;;12.50;79.40;;;;;;4973826;28;20066;-75
2022/10/26 00:05:23;;;;;;;11.35;6.07;;;12.50;79.40;;;;;;4974854;28;20050;-75
2022/10/26 00:07:51;;;;;;;9.68;5.70;;;12.50;79.40;;;;;;4992560;28;20113;-75
2022/10/26 00:10:20;;;;;;;11.60;5.80;;;12.50;79.40;;;;;;4974614;28;20053;-75
2022/10/26 00:12:49;;;;;;;10.10;5.63;;;12.50;79.40;;;;;;4974967;28;20263;-75
2022/10/26 00:15:17;;;;;;;9.45;5.47;;;12.50;79.40;;;;;;4974300;28;20050;-75
2022/10/26 00:17:45;;;;;;;10.15;5.45;;;12.50;79.40;;;;;;4974636;28;20073;-75
2022/10/26 00:20:12;;;;;;;10.75;5.43;;;12.50;79.30;;;;;;4973031;28;20050;-75
2022/10/26 00:22:40;;;;;;;9.73;5.50;;;12.50;79.30;;;;;;4974667;28;20058;-75
2022/10/26 00:25:09;;;;;;;8.90;5.55;;;12.50;79.30;;;;;;4991928;28;20283;-75
2022/10/26 00:27:36;;;;;;;10.25;5.40;;;12.50;79.20;;;;;;4974409;28;20055;-75
2022/10/26 00:30:04;;;;;;;9.35;5.60;;;12.50;79.20;;;;;;4973710;28;20058;-75
2022/10/26 00:32:32;;;;;;;9.43;5.82;;;12.50;79.10;;;;;;4991980;28;20050;-75
2022/10/26 00:34:59;;;;;;;11.50;5.83;;;12.40;79.20;;;;;;4957924;28;20137;-75
2022/10/26 00:37:27;;;;;;;8.77;5.55;;;12.40;79.20;;;;;;4973297;28;20358;-75
2022/10/26 00:39:54;;;;;;;10.82;5.28;;;12.40;79.20;;;;;;4990908;28;20058;-75
2022/10/26 00:42:24;;;;;;;9.18;5.20;;;12.40;79.20;;;;;;4974191;28;20520;-75
2022/10/26 00:45:00;;;;;;;8.73;4.80;;;12.40;79.30;;;;;;4991073;28;20059;-75
2022/10/26 00:47:41;;;;;;;8.73;4.03;;;12.30;79.20;;;;;;4974041;28;20516;-75
2022/10/26 00:50:11;;;;;;;7.43;4.20;;;12.30;79.10;;;;;;4991269;28;20281;-75
2022/10/26 00:52:39;;;;;;;8.52;3.42;;;12.30;79.10;;;;;;4973927;28;20138;-75
2022/10/26 00:55:08;;;;;;;5.93;3.25;;;12.20;79.10;;;;;;4973778;28;20622;-75
2022/10/26 00:57:39;;;;;;;6.88;4.03;;;12.20;79.00;;;;;;4974018;28;20522;-75
2022/10/26 01:00:08;;;;;;;5.93;3.30;;;12.10;78.90;;;;;;4973228;28;20051;-75
2022/10/26 01:02:35;;;;;;;5.85;3.05;;;12.10;79.00;;;;;;4974116;28;20808;-75
2022/10/26 01:05:04;;;;;;;4.85;2.80;;;12.00;79.00;;;;;;4991341;28;20138;-75
2022/10/26 01:07:32;;;;;;;5.00;2.60;;;12.00;79.00;;;;;;4973864;28;20055;-75
2022/10/26 01:10:00;;;;;;;5.35;2.92;;;11.90;79.00;;;;;;4990322;28;20055;-75
2022/10/26 01:12:27;;;;;;;6.17;3.10;;;11.90;79.10;;;;;;4974024;28;20464;-75
2022/10/26 01:14:56;;;;;;;6.30;3.28;;;11.90;79.00;;;;;;4973649;28;20263;-75
2022/10/26 01:17:34;;;;;;;6.50;3.38;;;11.90;78.80;;;;;;4973753;28;20051;-75
2022/10/26 01:20:24;;;;;;;7.75;4.18;;;11.80;78.60;;;;;;4990863;28;20051;-75
2022/10/26 01:22:57;;;;;;;6.43;3.60;;;11.70;78.60;;;;;;4973719;28;20051;-75
2022/10/26 01:25:49;;;;;;;6.90;3.50;;;11.70;78.70;;;;;;4973632;28;20767;-75
2022/10/26 01:28:30;;;;;;;7.32;3.83;;;11.70;78.70;;;;;;4972329;28;20855;-75
2022/10/26 01:31:02;;;;;;;7.32;3.45;;;11.70;78.60;;;;;;4957375;28;20520;-75
2022/10/26 01:33:34;;;;;;;6.50;3.33;;;11.70;78.60;;;;;;4973627;28;20047;-75
2022/10/26 01:36:10;;;;;;;8.48;3.80;;;11.70;78.60;;;;;;4973140;28;20138;-75
2022/10/26 01:38:47;;;;;;;8.00;4.10;;;11.70;78.50;;;;;;4990998;28;20146;-75
2022/10/26 01:41:21;;;;;;;6.70;3.65;;;11.70;78.40;;;;;;4973349;28;20266;-75
2022/10/26 01:43:52;;;;;;;6.78;3.53;;;11.70;78.50;;;;;;4990205;28;20086;-75
2022/10/26 01:46:23;;;;;;;7.28;4.10;;;11.70;78.40;;;;;;4973136;28;20516;-75
2022/10/26 01:48:53;;;;;;;8.02;4.47;;;11.70;78.40;;;;;;4973115;28;20137;-75
2022/10/26 01:51:22;;;;;;;7.63;3.73;;;11.60;78.30;;;;;;4989289;28;20054;-75
2022/10/26 01:53:49;;;;;;;8.93;4.70;;;11.60;78.40;;;;;;4972654;28;20341;-75
2022/10/26 01:56:21;;;;;;;8.13;4.80;;;11.60;78.40;;;;;;4972643;28;20098;-75
2022/10/26 01:59:08;;;;;;;10.57;5.00;;;11.50;78.40;;;;;;4972456;28;20049;-75
2022/10/26 02:02:00;;;;;;;8.85;5.30;;;11.50;78.30;;;;;;4970084;28;20065;-75
2022/10/26 02:04:42;;;;;;;9.73;5.30;;;11.50;78.30;;;;;;4971353;28;20058;-75
2022/10/26 02:07:18;;;;;;;12.07;5.55;;;11.50;78.30;;;;;;4988740;28;20263;-75
2022/10/26 02:09:54;;;;;;;10.55;5.65;;;11.50;78.20;;;;;;4970877;28;20126;-75
2022/10/26 02:12:31;;;;;;;10.25;5.57;;;11.40;78.40;;;;;;4971207;28;20046;-75
2022/10/26 02:15:05;;;;;;;8.88;5.07;;;11.40;78.60;;;;;;4972303;28;20062;-75
2022/10/26 02:17:42;;;;;;;9.23;5.40;;;11.40;78.70;;;;;;4971864;28;20059;-75
2022/10/26 02:20:15;;;;;;;8.95;5.63;;;11.40;78.60;;;;;;4972593;28;20681;-75
2022/10/26 02:22:46;;;;;;;9.57;5.85;;;11.40;78.70;;;;;;4990543;28;20055;-75
2022/10/26 02:25:17;;;;;;;11.60;6.32;;;11.40;78.70;;;;;;4973250;28;20109;-75
2022/10/26 02:27:51;;;;;;;9.70;5.75;;;11.40;78.70;;;;;;4988954;28;20067;-75
2022/10/26 02:30:19;;;;;;;10.23;6.13;;;11.40;78.80;;;;;;4972647;28;20223;-75
2022/10/26 02:32:51;;;;;;;11.95;6.55;;;11.40;78.80;;;;;;4972332;28;20247;-75
2022/10/26 02:35:21;;;;;;;12.05;6.70;;;11.40;78.90;;;;;;4989228;28;20061;-75
2022/10/26 02:37:50;;;;;;;11.40;6.70;;;11.30;78.90;;;;;;4972470;28;20055;-75
2022/10/26 02:40:22;;;;;;;12.10;6.93;;;11.30;78.90;;;;;;4972649;28;20046;-75
2022/10/26 02:42:52;;;;;;;12.40;6.50;;;11.30;79.00;;;;;;4988692;28;20522;-75
2022/10/26 02:45:22;;;;;;;12.20;6.53;;;11.30;78.90;;;;;;4972496;28;20642;-75
2022/10/26 02:47:51;;;;;;;12.05;6.70;;;11.30;79.00;;;;;;4972547;28;20065;-75
2022/10/26 02:50:21;;;;;;;12.73;7.20;;;11.30;78.90;;;;;;4988768;28;20105;-75
2022/10/26 02:52:54;;;;;;;11.43;6.68;;;11.30;79.00;;;;;;4990143;28;20061;-75
2022/10/26 02:55:25;;;;;;;12.07;6.47;;;11.20;79.00;;;;;;4990048;28;20051;-75
2022/10/26 02:57:57;;;;;;;11.85;6.80;;;11.20;79.00;;;;;;4972127;28;20251;-75
2022/10/26 03:00:24;;;;;;;13.15;7.25;;;11.20;79.20;;;;;;4989809;28;20054;-75
2022/10/26 03:02:56;;;;;;;11.80;7.00;;;11.20;79.30;;;;;;4973371;28;20047;-75
2022/10/26 03:05:26;;;;;;;12.98;7.30;;;11.20;79.20;;;;;;4959676;28;20055;-75
2022/10/26 03:07:53;;;;;;;15.20;7.70;;;11.10;79.30;;;;;;4975019;28;20055;-75
2022/10/26 03:10:20;;;;;;;13.93;7.32;;;11.10;79.50;;;;;;4992943;28;20366;-75
2022/10/26 03:12:48;;;;;;;11.60;6.93;;;11.10;79.50;;;;;;4993190;28;20130;-75
2022/10/26 03:15:15;;;;;;;12.68;7.40;;;11.10;79.60;;;;;;4975506;28;20057;-75
2022/10/26 03:17:42;;;;;;;13.27;7.45;;;11.10;79.70;;;;;;4992992;28;20093;-75
2022/10/26 03:20:11;;;;;;;13.10;7.30;;;11.10;79.70;;;;;;4975283;28;20137;-75
2022/10/26 03:22:38;;;;;;;13.85;7.18;;;11.10;79.70;;;;;;4975507;28;21177;-75
2022/10/26 03:25:07;;;;;;;14.38;7.80;;;11.10;79.80;;;;;;4974527;28;20047;-75
2022/10/26 03:27:34;;;;;;;14.85;7.95;;;11.10;79.80;;;;;;4992968;28;20141;-75
2022/10/26 03:30:02;;;;;;;15.43;7.72;;;11.10;79.90;;;;;;4974902;28;20054;-75
2022/10/26 03:32:29;;;;;;;13.23;7.27;;;11.10;79.90;;;;;;4975621;28;20096;-75
2022/10/26 03:34:56;;;;;;;13.02;7.13;;;11.10;80.00;;;;;;4975542;28;20255;-75
2022/10/26 03:37:25;;;;;;;12.65;7.22;;;11.10;80.00;;;;;;4975044;28;20082;-75
2022/10/26 03:39:52;;;;;;;16.15;7.43;;;11.10;80.00;;;;;;4991896;28;20509;-75
2022/10/26 03:42:19;;;;;;;14.68;7.80;;;11.10;80.10;;;;;;4992560;28;20128;-75
2022/10/26 03:44:47;;;;;;;14.63;8.70;;;11.10;80.10;;;;;;4974683;28;20523;-75
2022/10/26 03:47:14;;;;;;;14.68;7.60;;;11.10;80.10;;;;;;4992660;28;20270;-75
2022/10/26 03:49:41;;;;;;;11.30;7.15;;;11.10;80.10;;;;;;4992178;28;20145;-75
2022/10/26 03:52:08;;;;;;;16.42;8.40;;;11.10;80.20;;;;;;4974925;28;20477;-75
2022/10/26 03:54:36;;;;;;;14.07;8.18;;;11.10;80.20;;;;;;4992683;28;20394;-75
2022/10/26 03:57:03;;;;;;;14.40;8.20;;;11.10;80.20;;;;;;4973621;28;20169;-75
2022/10/26 03:59:30;;;;;;;14.10;8.05;;;11.10;80.20;;;;;;4992665;28;20301;-75
2022/10/26 04:01:57;;;;;;;13.05;6.97;;;11.10;80.30;;;;;;4992588;28;20055;-75
2022/10/26 04:04:24;;;;;;;15.55;7.55;;;11.10;80.30;;;;;;4974855;28;20054;-75
2022/10/26 04:06:52;;;;;;;12.55;7.60;;;11.10;80.30;;;;;;4974534;28;20047;-75
2022/10/26 04:09:19;;;;;;;12.93;7.83;;;11.10;80.30;;;;;;4991878;28;20094;-75
2022/10/26 04:11:47;;;;;;;15.05;8.50;;;11.10;80.40;;;;;;4974737;28;20330;-75
2022/10/26 04:14:14;;;;;;;15.75;8.55;;;11.10;80.40;;;;;;4972856;28;20061;-75
2022/10/26 04:16:41;;;;;;;15.20;8.32;;;11.10;80.40;;;;;;4974468;28;20065;-75
2022/10/26 04:19:08;;;;;;;15.57;8.25;;;11.10;80.50;;;;;;4991525;28;20501;-75
2022/10/26 04:21:35;;;;;;;12.60;7.90;;;11.10;80.50;;;;;;4992174;28;20051;-75
2022/10/26 04:24:03;;;;;;;13.70;7.65;;;11.10;80.50;;;;;;4974421;28;20306;-75
2022/10/26 04:26:30;;;;;;;14.70;7.78;;;11.10;80.60;;;;;;4974316;28;20047;-75
2022/10/26 04:28:58;;;;;;;14.07;8.20;;;11.10;80.70;;;;;;4991619;28;20086;-75
2022/10/26 04:31:25;;;;;;;13.95;8.15;;;11.00;80.80;;;;;;4990842;28;20434;-75
2022/10/26 04:33:52;;;;;;;15.07;8.73;;;11.00;80.90;;;;;;4992015;28;20043;-75
2022/10/26 04:36:19;;;;;;;13.45;7.95;;;11.00;80.90;;;;;;4974427;28;20736;-75
2022/10/26 04:38:48;;;;;;;14.50;8.40;;;11.00;81.00;;;;;;4990226;28;20052;-75
2022/10/26 04:41:15;;;;;;;13.95;8.18;;;11.00;81.10;;;;;;4974308;28;20055;-75
2022/10/26 04:43:42;;;;;;;11.88;7.57;;;11.00;81.20;;;;;;4974318;28;20050;-75
2022/10/26 04:46:12;;;;;;;13.97;7.93;;;11.10;81.20;;;;;;4973981;28;20137;-75
2022/10/26 04:48:40;;;;;;;15.15;8.07;;;11.10;81.30;;;;;;4973255;28;20769;-76
2022/10/26 04:51:07;;;;;;;15.00;7.88;;;11.00;81.30;;;;;;4974041;28;20130;-75
2022/10/26 04:53:34;;;;;;;13.18;7.65;;;11.10;81.50;;;;;;4974500;28;20873;-75
2022/10/26 04:56:02;;;;;;;14.05;8.50;;;11.10;81.50;;;;;;4973655;28;20047;-75
2022/10/26 04:58:29;;;;;;;14.63;8.30;;;11.10;81.60;;;;;;4991307;28;21098;-75
2022/10/26 05:00:56;;;;;;;14.65;8.15;;;11.10;81.50;;;;;;4973567;28;20255;-75
2022/10/26 05:03:25;;;;;;;16.02;8.38;;;11.10;81.60;;;;;;4973643;28;20057;-75
2022/10/26 05:05:52;;;;;;;13.27;7.35;;;11.10;81.70;;;;;;4990978;28;20051;-75
2022/10/26 05:08:19;;;;;;;15.45;8.02;;;11.10;81.70;;;;;;4973960;28;20110;-75
2022/10/26 05:10:49;;;;;;;14.80;7.90;;;11.10;81.70;;;;;;4991315;28;20141;-75
2022/10/26 05:13:16;;;;;;;14.18;7.97;;;11.10;81.90;;;;;;4989723;28;20355;-75
2022/10/26 05:15:44;;;;;;;12.85;7.80;;;11.10;82.00;;;;;;4991147;28;20086;-75
2022/10/26 05:18:11;;;;;;;14.25;7.38;;;11.10;82.10;;;;;;4973487;28;20114;-75
2022/10/26 05:20:39;;;;;;;12.07;7.43;;;11.10;82.20;;;;;;4972278;28;20061;-75
2022/10/26 05:23:07;;;;;;;13.33;6.90;;;11.10;82.30;;;;;;4973527;28;20066;-75
2022/10/26 05:25:36;;;;;;;14.93;8.18;;;11.00;82.50;;;;;;4973623;28;20248;-75
2022/10/26 05:28:06;;;;;;;13.13;7.80;;;11.00;82.60;;;;;;4973376;28;20043;-75
2022/10/26 05:30:34;;;;;;;12.82;7.60;;;11.00;82.70;;;;;;4973093;28;20054;-75
2022/10/26 05:33:02;;;;;;;12.55;7.13;;;11.00;82.90;;;;;;4972994;28;20525;-75
2022/10/26 05:35:29;;;;;;;13.87;7.73;;;11.00;83.00;;;;;;4990617;28;20047;-75
2022/10/26 05:37:58;;;;;;;12.07;6.95;;;10.90;83.00;;;;;;4969442;28;20378;-75
2022/10/26 05:40:25;;;;;;;15.55;7.65;;;10.90;83.10;;;;;;4990116;28;20137;-75
2022/10/26 05:42:53;;;;;;;14.07;7.25;;;10.90;83.20;;;;;;4972731;28;20114;-75
2022/10/26 05:45:20;;;;;;;13.10;7.25;;;10.90;83.30;;;;;;4990118;28;20047;-75
2022/10/26 05:47:51;;;;;;;13.03;6.90;;;10.90;83.40;;;;;;4989470;28;20069;-75
2022/10/26 05:50:18;;;;;;;13.27;7.00;;;10.90;83.40;;;;;;4970857;28;20254;-75
2022/10/26 05:52:46;;;;;;;12.02;6.97;;;11.00;83.40;;;;;;4971174;28;20043;-75
2022/10/26 05:55:17;;;;;;;11.05;6.90;;;11.00;83.50;;;;;;4969716;28;20615;-75
2022/10/26 05:57:44;;;;;;;12.32;7.18;;;11.00;83.60;;;;;;4971002;28;20206;-75
2022/10/26 06:00:16;;;;;;;12.63;7.20;;;11.00;83.60;;;;;;4985522;28;20050;-75
2022/10/26 06:02:55;;;;;;;13.02;7.35;;;11.00;83.70;;;;;;4989992;28;20282;-75
2022/10/26 06:05:26;;;;;;;13.75;6.93;;;11.00;83.80;;;;;;4952989;28;20131;-75
2022/10/26 06:07:54;;;;;;;11.98;7.10;;;11.10;83.70;;;;;;4958264;28;20151;-75
2022/10/26 06:10:23;;;;;;;12.68;6.78;;;11.10;83.70;;;;;;4989348;28;20576;-75
2022/10/26 06:12:50;;;;;;;11.87;6.73;;;11.10;83.80;;;;;;4987068;28;20530;-75
2022/10/26 06:15:20;;;;;;;12.93;7.32;;;11.10;84.00;;;;;;4968081;28;20259;-75
2022/10/26 06:17:59;;;;;;;13.68;7.07;;;11.10;83.80;;;;;;4970665;28;20089;-76
2022/10/26 06:20:43;;;;;;;10.57;6.38;;;11.10;83.90;;;;;;4969552;28;20278;-76
2022/10/26 06:23:23;;;;;;;13.60;7.05;;;11.10;84.00;;;;;;4969663;28;20054;-75
2022/10/26 06:25:57;;;;;;;11.07;6.83;;;11.10;84.00;;;;;;4969598;28;20049;-75
2022/10/26 06:28:36;;;;;;;12.77;6.70;;;11.10;84.00;;;;;;4985335;28;20289;-75
2022/10/26 06:31:04;;;;;;;12.95;6.90;;;11.10;84.00;;;;;;4982844;28;20512;-74
2022/10/26 06:33:31;;;;;;;14.38;7.07;;;11.10;84.00;;;;;;4971283;28;20083;-75
2022/10/26 06:36:09;;;;;;;12.77;6.55;;;11.10;84.00;;;;;;4971248;28;20055;-75
2022/10/26 06:38:37;;;;;;;12.13;6.53;;;11.10;84.10;;;;;;4989605;28;20062;-75
2022/10/26 06:41:06;;;;;;;11.38;6.70;;;11.10;84.20;;;;;;4973483;28;20349;-75
2022/10/26 06:43:35;;;;;;;11.60;6.50;;;11.10;84.20;;;;;;4973484;28;20489;-75
2022/10/26 06:46:10;;;;;;;11.63;6.32;;;11.10;84.10;;;;;;4972791;28;20062;-75
2022/10/26 06:48:48;;;;;;;12.30;6.32;;;11.10;84.10;;;;;;4955559;28;20051;-75
2022/10/26 06:51:17;;;;;;;12.30;6.40;;;11.10;84.10;;;;;;4990580;28;20494;-74
2022/10/26 06:53:52;;;;;;;10.52;5.72;;;11.10;84.00;;;;;;4975491;28;20343;-75
2022/10/26 06:56:23;;;;;;;10.25;5.90;;;11.10;84.00;;;;;;4975280;28;20524;-75
2022/10/26 06:58:54;;;;;;;11.35;5.95;;;11.10;84.00;;;;;;4992271;28;20059;-74
2022/10/26 07:01:21;;;;;;;11.32;6.07;;;11.20;84.00;;;;;;4973686;28;20848;-75
2022/10/26 07:03:48;;;;;;;11.17;6.03;;;11.20;84.00;;;;;;4990604;28;20505;-75
2022/10/26 07:06:15;;;;;;;12.73;6.45;;;11.30;84.00;;;;;;4992567;28;20901;-74
2022/10/26 07:08:42;;;;;;;11.85;6.70;;;11.30;84.00;;;;;;4990919;28;20158;-74
2022/10/26 07:11:09;;;;;;;11.60;6.57;;;11.30;84.10;;;;;;4991018;28;20181;-75
2022/10/26 07:13:38;;;;;;;12.32;6.00;;;11.30;84.20;;;;;;4974895;28;20047;-74
2022/10/26 07:16:05;;;;;;;11.17;6.10;;;11.30;84.30;;;;;;4991226;28;20126;-74
2022/10/26 07:18:32;;;;;;;9.55;5.60;;;11.30;84.40;;;;;;4974870;28;20282;-75
2022/10/26 07:20:59;;;;;;;11.55;5.60;;;11.30;84.60;;;;;;4991368;28;20114;-75
2022/10/26 07:23:27;;;;;;;11.10;6.43;;;11.30;84.60;;;;;;4992554;28;20137;-75
2022/10/26 07:25:54;;;;;;;11.50;6.47;;;11.30;84.70;;;;;;4991605;28;20051;-75
2022/10/26 07:28:21;;;;;;;10.13;5.47;;;11.30;84.80;;;;;;4993227;28;20077;-75
2022/10/26 07:30:49;;;;;;;11.20;5.32;;;11.40;84.70;;;;;;4991404;28;20255;-74
2022/10/26 07:33:16;;;;;;;11.38;5.45;;;11.40;84.90;;;;;;4991629;28;20055;-74
2022/10/26 07:35:43;;;;;;;9.25;5.65;;;11.40;84.80;;;;;;4974031;28;20054;-74
2022/10/26 07:38:13;;;;;;;10.15;5.22;;;11.50;85.00;;;;;;4990602;28;20055;-74
2022/10/26 07:40:40;;;;;;;10.17;5.97;;;11.50;85.00;;;;;;4973456;28;20055;-74
2022/10/26 07:43:07;;;;;;;10.77;5.45;;;11.50;85.10;;;;;;4991393;28;20781;-74
2022/10/26 07:45:35;;;;;;;10.00;5.05;;;11.50;85.20;;;;;;4991271;28;20142;-74
2022/10/26 07:48:04;;;;;;;9.63;5.00;;;11.50;85.20;;;;;;4990268;28;20069;-74
2022/10/26 07:50:31;;;;;;;11.10;5.00;;;11.50;85.20;;;;;;4972608;28;20050;-75
2022/10/26 07:52:59;;;;;;;10.17;5.37;;;11.50;85.30;;;;;;4990015;28;20059;-75
2022/10/26 07:55:27;;;;;;;11.48;5.18;;;11.60;85.30;;;;;;4971143;28;20275;-74
2022/10/26 07:57:54;;;;;;;9.43;5.25;;;11.60;85.50;;;;;;4988545;28;20058;-74
2022/10/26 08:00:22;;;;;;;9.50;4.90;;;11.70;85.50;;;;;;4972628;28;20253;-75
2022/10/26 08:02:49;;;;;;;10.82;4.80;;;11.70;85.50;;;;;;4972235;28;20126;-75
2022/10/26 08:05:18;;;;;;;12.00;4.60;;;11.70;85.50;;;;;;4972221;28;20061;-74
2022/10/26 08:07:45;;;;;;;8.25;4.35;;;11.70;85.50;;;;;;4988859;28;20684;-74
2022/10/26 08:10:14;;;;;;;9.88;4.53;;;11.80;85.50;;;;;;4972676;28;20146;-75
2022/10/26 08:12:42;;;;;;;7.97;4.22;;;11.90;85.50;;;;;;4972290;28;20055;-74
2022/10/26 08:15:10;;;;;;;9.48;4.68;;;11.90;85.60;;;;;;4990134;28;20047;-74
2022/10/26 08:17:37;;;;;;;9.50;4.70;;;11.90;85.70;;;;;;4989521;28;20846;-75
2022/10/26 08:20:05;;;;;;;9.48;4.50;;;12.00;85.70;;;;;;4991116;28;20370;-75
2022/10/26 08:22:33;;;;;;;7.78;4.32;;;12.00;85.70;;;;;;4957239;28;20137;-75
2022/10/26 08:25:00;;;;;;;9.07;4.30;;;12.00;85.50;;;;;;4968467;28;20061;-74
2022/10/26 08:27:27;;;;;;;10.05;4.07;;;12.10;85.70;;;;;;4990819;28;20138;-75
2022/10/26 08:29:54;;;;;;;8.20;4.50;;;12.10;85.60;;;;;;4986588;28;20047;-75
2022/10/26 08:32:22;;;;;;;9.45;3.92;;;12.20;85.70;;;;;;4988196;28;20282;-75
2022/10/26 08:34:49;;;;;;;10.05;4.15;;;12.20;85.60;;;;;;4989573;28;20059;-74
2022/10/26 08:37:16;;;;;;;8.32;3.97;;;12.30;85.50;;;;;;4971908;28;20057;-75
2022/10/26 08:39:44;;;;;;;8.52;3.92;;;12.40;85.50;;;;;;4987860;28;20061;-75
2022/10/26 08:42:16;;;;;;;7.97;3.87;;;12.40;85.50;;;;;;4972392;28;20134;-75
2022/10/26 08:44:47;;;;;;;9.18;5.07;;;12.50;85.50;;;;;;4988542;28;20661;-75
2022/10/26 08:47:19;;;;;;;8.48;4.80;;;12.50;85.50;;;;;;4972088;28;20664;-74
2022/10/26 08:49:51;;;;;;;9.43;5.13;;;12.50;85.60;;;;;;4988881;28;20058;-74
2022/10/26 08:52:22;;;;;;;9.18;5.13;;;12.50;85.60;;;;;;4971682;28;20078;-74
2022/10/26 08:54:53;;;;;;;7.93;4.37;;;12.60;85.70;;;;;;4970221;28;20130;-74
2022/10/26 08:57:25;;;;;;;8.63;4.30;;;12.70;85.70;;;;;;4969897;28;20401;-75
2022/10/26 08:59:58;;;;;;;11.48;4.50;;;12.80;85.80;;;;;;4984931;28;20185;-74
2022/10/26 09:02:25;;;;;;;9.35;4.07;;;12.80;85.90;;;;;;4984354;28;20078;-75
2022/10/26 09:04:53;;;;;;;8.38;3.92;;;12.90;85.90;;;;;;4970512;28;20047;-76
2022/10/26 09:07:55;;;;;;;7.87;3.50;;;13.00;85.80;;;;;;4970353;28;20070;-76
2022/10/26 09:10:37;;;;;;;7.25;4.00;;;13.00;85.80;;;;;;4974139;28;20279;-76
2022/10/26 09:13:11;;;;;;;9.55;4.20;;;13.10;85.70;;;;;;4970737;28;20050;-75
2022/10/26 09:15:51;;;;;;;8.02;3.40;;;13.20;85.50;;;;;;4988440;28;20529;-75
2022/10/26 09:18:32;;;;;;;8.05;3.90;;;13.30;85.40;;;;;;4987306;28;20055;-75
2022/10/26 09:21:16;;;;;;;7.00;3.50;;;13.40;85.30;;;;;;4986901;28;20051;-75
2022/10/26 09:24:03;;;;;;;9.57;3.70;;;13.50;85.40;;;;;;4986863;28;20365;-75
2022/10/26 09:26:38;;;;;;;9.70;3.70;;;13.60;85.30;;;;;;4967674;28;20627;-75
2022/10/26 09:29:11;;;;;;;8.45;3.45;;;13.60;85.20;;;;;;4970581;28;20061;-75
2022/10/26 09:31:41;;;;;;;9.32;3.90;;;13.70;85.20;;;;;;4970475;28;20061;-75
2022/10/26 09:34:17;;;;;;;10.07;4.23;;;13.90;85.10;;;;;;4970169;28;20513;-75
2022/10/26 09:36:44;;;;;;;8.98;3.83;;;13.90;85.00;;;;;;4986344;28;20257;-75
2022/10/26 09:39:19;;;;;;;7.32;3.97;;;14.00;84.90;;;;;;4989215;28;20146;-75
2022/10/26 09:41:55;;;;;;;8.48;3.78;;;14.10;85.00;;;;;;4971841;28;20509;-75
2022/10/26 09:45:48;;;;;;;6.93;3.88;;;14.10;84.90;;;;;;5146369;27;20399;-75
2022/10/26 09:48:22;;;;;;;7.90;4.30;;;14.30;84.70;;;;;;5128488;27;20059;-75
2022/10/26 09:50:51;;;;;;;9.50;3.63;;;14.30;84.50;;;;;;5148272;27;20043;-75
2022/10/26 09:53:18;;;;;;;7.60;3.60;;;14.40;84.20;;;;;;5158326;27;20051;-75
2022/10/26 09:55:48;;;;;;;7.32;3.45;;;14.50;84.00;;;;;;5150450;27;20072;-75
2022/10/26 09:58:17;;;;;;;7.95;3.33;;;14.60;83.90;;;;;;5150219;27;20104;-75
2022/10/26 10:00:47;;;;;;;7.18;2.90;;;14.60;83.80;;;;;;5132777;27;20497;-76
2022/10/26 10:03:24;;;;;;;7.27;2.80;;;14.70;83.50;;;;;;5149140;27;20130;-75
2022/10/26 10:05:51;;;;;;;8.30;3.20;;;14.70;83.20;;;;;;5145593;27;20159;-74
2022/10/26 10:08:21;;;;;;;5.60;2.67;;;14.80;83.00;;;;;;5146344;27;20138;-74
2022/10/26 10:10:55;;;;;;;5.82;2.75;;;14.90;83.00;;;;;;5129319;27;20055;-74
2022/10/26 10:13:25;;;;;;;7.18;3.80;;;15.00;82.80;;;;;;5143423;27;20116;-74
2022/10/26 10:15:57;;;;;;;6.00;2.83;;;15.00;82.60;;;;;;5143430;27;20062;-73
2022/10/26 10:18:24;;;;;;;7.32;2.80;;;15.00;82.40;;;;;;5108348;27;20044;-73
2022/10/26 10:20:54;;;;;;;6.65;2.53;;;15.20;82.40;;;;;;5129083;27;20051;-74
2022/10/26 10:23:30;;;;;;;7.88;3.25;;;15.20;82.20;;;;;;5147251;27;20052;-73
2022/10/26 10:26:06;;;;;;;6.00;2.80;;;15.30;82.00;;;;;;5145281;27;20055;-74
2022/10/26 10:28:34;;;;;;;8.13;5.10;;;15.40;81.80;;;;;;5140738;27;20050;-74
2022/10/26 10:31:05;;;;;;;6.82;3.33;;;15.50;81.80;;;;;;5138090;27;20104;-74
2022/10/26 10:33:34;;;;;;;8.82;3.30;;;15.50;81.60;;;;;;5133890;27;20043;-75
2022/10/26 10:36:02;;;;;;;8.13;4.20;;;15.60;81.20;;;;;;5149491;27;20056;-75
2022/10/26 10:38:29;;;;;;;8.07;3.05;;;15.60;81.10;;;;;;5145440;27;20051;-75
2022/10/26 10:41:02;;;;;;;8.97;3.50;;;15.70;81.00;;;;;;5147412;27;20043;-74
2022/10/26 10:43:29;;;;;;;7.63;3.03;;;15.80;80.90;;;;;;5146802;27;20056;-74
2022/10/26 10:45:58;;;;;;;8.82;3.30;;;15.90;80.80;;;;;;5113931;27;20054;-75
2022/10/26 10:48:28;;;;;;;6.32;2.72;;;16.00;81.10;;;;;;5146904;27;20051;-75
2022/10/26 10:50:58;;;;;;;6.78;2.53;;;16.10;81.10;;;;;;5111682;27;20051;-75
2022/10/26 10:53:31;;;;;;;6.67;2.67;;;16.20;80.70;;;;;;5148531;27;20050;-75
2022/10/26 10:56:20;;;;;;;7.88;2.80;;;16.30;80.50;;;;;;5137727;27;20166;-75
2022/10/26 10:58:58;;;;;;;6.95;3.00;;;16.40;80.50;;;;;;5131899;27;20116;-75
2022/10/26 11:01:32;;;;;;;7.00;2.80;;;16.50;80.30;;;;;;5095616;27;20046;-75
2022/10/26 11:04:24;;;;;;;6.22;2.60;;;16.50;80.00;;;;;;5114278;27;20113;-75
2022/10/26 11:06:55;;;;;;;6.27;2.40;;;16.60;79.80;;;;;;5109848;27;20567;-75
2022/10/26 11:09:27;;;;;;;7.03;2.97;;;16.70;79.60;;;;;;5136428;27;20048;-75
2022/10/26 11:11:58;;;;;;;7.43;2.90;;;16.80;79.10;;;;;;5132465;27;20063;-75
2022/10/26 11:14:30;;;;;;;8.77;2.72;;;16.90;78.50;;;;;;5115057;27;20048;-75
2022/10/26 11:17:04;;;;;;;6.18;2.60;;;17.00;78.10;;;;;;5132878;27;20082;-76
2022/10/26 11:19:37;;;;;;;6.10;2.77;;;17.00;78.00;;;;;;5142590;27;20066;-76
2022/10/26 11:22:10;;;;;;;7.60;2.53;;;17.00;77.50;;;;;;5153808;27;20126;-75
2022/10/26 11:24:43;;;;;;;7.57;2.75;;;17.20;77.10;;;;;;5140243;27;20129;-76
2022/10/26 11:27:15;;;;;;;7.03;2.80;;;17.20;76.60;;;;;;5131687;27;20055;-76
2022/10/26 11:29:51;;;;;;;8.00;2.83;;;17.20;76.90;;;;;;5112902;27;20046;-76
2022/10/26 11:32:22;;;;;;;6.20;2.47;;;17.20;77.00;;;;;;5113339;27;20156;-76
2022/10/26 11:34:58;;;;;;;5.68;2.83;;;17.20;76.80;;;;;;5112804;27;20484;-76
2022/10/26 11:37:31;;;;;;;6.10;2.35;;;17.40;76.60;;;;;;5112788;27;20047;-76
2022/10/26 11:40:02;;;;;;;8.25;2.38;;;17.40;76.60;;;;;;5114638;27;20504;-76
2022/10/26 11:42:35;;;;;;;6.63;2.80;;;17.50;76.60;;;;;;5133612;27;20048;-76
2022/10/26 11:45:11;;;;;;;7.53;2.70;;;17.50;76.40;;;;;;5132670;27;20044;-76
2022/10/26 11:47:43;;;;;;;5.07;2.10;;;17.50;76.30;;;;;;5133100;27;20055;-76
2022/10/26 11:50:17;;;;;;;5.93;2.15;;;17.60;76.00;;;;;;5097126;27;20485;-76
2022/10/26 11:52:47;;;;;;;8.65;2.70;;;17.60;76.10;;;;;;5114474;27;20044;-75
2022/10/26 11:55:15;;;;;;;6.22;2.40;;;17.80;75.40;;;;;;5151486;27;20070;-76
2022/10/26 11:57:44;;;;;;;4.90;2.27;;;17.80;74.80;;;;;;5135231;27;20122;-76
2022/10/26 12:00:16;;;;;;;7.13;2.30;;;18.00;74.30;;;;;;5131421;27;20063;-76
2022/10/26 12:02:48;;;;;;;8.52;2.47;;;18.00;74.70;;;;;;5114070;27;20055;-76
2022/10/26 12:05:23;;;;;;;6.00;2.22;;;18.00;74.80;;;;;;5113902;27;20133;-76
2022/10/26 12:07:55;;;;;;;6.80;2.40;;;18.10;74.80;;;;;;5112711;27;20059;-76
2022/10/26 12:10:26;;;;;;;7.17;2.07;;;18.10;74.20;;;;;;5102736;27;20143;-76
2022/10/26 12:13:04;;;;;;;8.00;2.70;;;18.20;74.30;;;;;;5133878;27;20126;-76
2022/10/26 12:15:36;;;;;;;8.77;3.10;;;18.20;74.60;;;;;;5132034;27;20048;-76
2022/10/26 12:18:14;;;;;;;8.52;2.55;;;18.30;74.30;;;;;;5132532;27;20073;-76
2022/10/26 12:21:02;;;;;;;5.68;2.53;;;18.30;73.50;;;;;;5122115;27;20092;-76
2022/10/26 12:23:31;;;;;;;7.37;2.40;;;18.40;73.40;;;;;;5134785;27;20048;-76
2022/10/26 12:26:46;;;;;;;6.38;2.55;;;18.40;73.50;;;;;;5134754;27;20209;-76
2022/10/26 12:29:28;;;;;;;6.75;2.67;;;18.50;73.50;;;;;;5122608;27;20079;-75
2022/10/26 12:31:55;;;;;;;6.75;2.60;;;18.50;73.40;;;;;;5113458;27;20044;-75
2022/10/26 12:34:24;;;;;;;6.22;2.63;;;18.60;73.40;;;;;;5113982;27;20606;-75
2022/10/26 12:37:21;;;;;;;6.17;2.53;;;18.60;73.00;;;;;;5132316;27;20505;-75
2022/10/26 12:39:49;;;;;;;5.25;2.25;;;18.60;73.00;;;;;;5093335;28;20106;-76
2022/10/26 12:42:30;;;;;;;6.57;2.85;;;18.60;73.30;;;;;;5093384;28;20047;-75
2022/10/26 12:45:16;;;;;;;7.03;2.70;;;18.70;72.70;;;;;;5117153;27;20060;-75
2022/10/26 12:48:01;;;;;;;8.65;2.60;;;18.70;72.80;;;;;;5113263;27;20056;-76
2022/10/26 12:50:29;;;;;;;7.23;2.70;;;18.70;72.90;;;;;;5124696;27;20675;-76
2022/10/26 12:53:00;;;;;;;5.82;2.60;;;18.70;72.50;;;;;;5094502;27;20434;-76
2022/10/26 12:56:01;;;;;;;8.00;3.03;;;18.70;72.50;;;;;;5111186;27;20044;-75
2022/10/26 12:59:03;;;;;;;6.55;2.50;;;18.70;72.90;;;;;;5126808;27;20095;-76
2022/10/26 13:02:01;;;;;;;6.93;2.63;;;18.70;73.50;;;;;;5102891;27;20054;-77
2022/10/26 13:05:07;;;;;;;8.13;2.90;;;18.70;73.80;;;;;;5107529;27;20185;-77